sensor_id;sensor_type;location;lat;lon;timestamp;P1;durP1;ratioP1;P2;durP2;ratioP2
6947;SDS011;3513;47.664;9.162;2022-09-09T00:01:46;3.10;;;2.30;;
6947;SDS011;3513;47.664;9.162;2022-09-09T00:04:38;4.83;;;2.23;;
6947;SDS011;3513;47.664;9.162;2022-09-09T00:07:25;19.00;;;2.50;;
6947;SDS011;3513;47.664;9.162;2022-09-09T00:10:23;6.63;;;2.23;;
6947;SDS011;3513;47.664;9.162;2022-09-09T00:20:49;7.43;;;2.70;;
6947;SDS011;3513;47.664;9.162;2022-09-09T00:28:36;11.40;;;2.43;;
6947;SDS011;3513;47.664;9.162;2022-09-09T00:31:17;10.20;;;3.10;;
6947;SDS011;3513;47.664;9.162;2022-09-09T00:33:47;12.20;;;2.67;;
6947;SDS011;3513;47.664;9.162;2022-09-09T00:36:17;7.60;;;2.20;;
6947;SDS011;3513;47.664;9.162;2022-09-09T00:38:47;5.53;;;2.20;;
6947;SDS011;3513;47.664;9.162;2022-09-09T00:44:44;5.47;;;2.67;;
6947;SDS011;3513;47.664;9.162;2022-09-09T00:49:24;8.27;;;2.97;;
6947;SDS011;3513;47.664;9.162;2022-09-09T00:57:34;3.47;;;2.10;;
6947;SDS011;3513;47.664;9.162;2022-09-09T01:00:17;7.90;;;2.20;;
6947;SDS011;3513;47.664;9.162;2022-09-09T01:02:52;2.60;;;1.90;;
6947;SDS011;3513;47.664;9.162;2022-09-09T01:05:48;4.03;;;2.07;;
6947;SDS011;3513;47.664;9.162;2022-09-09T01:11:01;7.70;;;2.67;;
6947;SDS011;3513;47.664;9.162;2022-09-09T01:13:30;3.93;;;1.80;;
6947;SDS011;3513;47.664;9.162;2022-09-09T01:15:59;6.83;;;2.70;;
6947;SDS011;3513;47.664;9.162;2022-09-09T01:18:49;10.73;;;2.60;;
6947;SDS011;3513;47.664;9.162;2022-09-09T01:21:36;7.07;;;2.00;;
6947;SDS011;3513;47.664;9.162;2022-09-09T01:24:26;3.07;;;1.60;;
6947;SDS011;3513;47.664;9.162;2022-09-09T01:27:02;6.50;;;1.87;;
6947;SDS011;3513;47.664;9.162;2022-09-09T01:29:30;6.90;;;2.23;;
6947;SDS011;3513;47.664;9.162;2022-09-09T01:32:00;3.10;;;2.30;;
6947;SDS011;3513;47.664;9.162;2022-09-09T01:34:31;10.33;;;2.23;;
6947;SDS011;3513;47.664;9.162;2022-09-09T01:37:10;8.53;;;2.60;;
6947;SDS011;3513;47.664;9.162;2022-09-09T01:39:38;2.23;;;1.90;;
6947;SDS011;3513;47.664;9.162;2022-09-09T01:42:06;4.77;;;2.00;;
6947;SDS011;3513;47.664;9.162;2022-09-09T01:44:36;8.93;;;2.50;;
6947;SDS011;3513;47.664;9.162;2022-09-09T01:47:03;7.00;;;2.33;;
6947;SDS011;3513;47.664;9.162;2022-09-09T01:49:29;12.33;;;2.97;;
6947;SDS011;3513;47.664;9.162;2022-09-09T01:51:55;13.00;;;2.37;;
6947;SDS011;3513;47.664;9.162;2022-09-09T01:54:21;12.93;;;2.17;;
6947;SDS011;3513;47.664;9.162;2022-09-09T02:07:42;5.80;;;2.10;;
6947;SDS011;3513;47.664;9.162;2022-09-09T02:10:17;17.13;;;2.30;;
6947;SDS011;3513;47.664;9.162;2022-09-09T02:12:47;6.70;;;3.30;;
6947;SDS011;3513;47.664;9.162;2022-09-09T02:15:25;5.60;;;2.33;;
6947;SDS011;3513;47.664;9.162;2022-09-09T02:17:55;12.80;;;2.13;;
6947;SDS011;3513;47.664;9.162;2022-09-09T02:20:23;7.33;;;2.23;;
6947;SDS011;3513;47.664;9.162;2022-09-09T02:22:51;6.13;;;2.17;;
6947;SDS011;3513;47.664;9.162;2022-09-09T02:25:19;8.63;;;2.77;;
6947;SDS011;3513;47.664;9.162;2022-09-09T02:27:48;4.23;;;2.33;;
6947;SDS011;3513;47.664;9.162;2022-09-09T02:30:16;7.07;;;2.10;;
6947;SDS011;3513;47.664;9.162;2022-09-09T02:32:43;10.87;;;2.70;;
6947;SDS011;3513;47.664;9.162;2022-09-09T02:35:15;14.93;;;2.80;;
6947;SDS011;3513;47.664;9.162;2022-09-09T02:37:44;5.23;;;2.27;;
6947;SDS011;3513;47.664;9.162;2022-09-09T02:40:14;7.30;;;2.90;;
6947;SDS011;3513;47.664;9.162;2022-09-09T02:42:41;8.43;;;3.10;;
6947;SDS011;3513;47.664;9.162;2022-09-09T02:45:09;14.70;;;3.00;;
6947;SDS011;3513;47.664;9.162;2022-09-09T02:47:38;11.60;;;2.73;;
6947;SDS011;3513;47.664;9.162;2022-09-09T02:50:33;17.37;;;2.90;;
6947;SDS011;3513;47.664;9.162;2022-09-09T02:53:17;4.40;;;2.97;;
6947;SDS011;3513;47.664;9.162;2022-09-09T02:58:22;7.67;;;3.33;;
6947;SDS011;3513;47.664;9.162;2022-09-09T03:00:50;7.67;;;3.80;;
6947;SDS011;3513;47.664;9.162;2022-09-09T03:03:16;9.37;;;4.20;;
6947;SDS011;3513;47.664;9.162;2022-09-09T03:05:44;14.43;;;4.43;;
6947;SDS011;3513;47.664;9.162;2022-09-09T03:08:10;15.43;;;4.87;;
6947;SDS011;3513;47.664;9.162;2022-09-09T03:10:36;16.43;;;3.33;;
6947;SDS011;3513;47.664;9.162;2022-09-09T03:13:03;9.70;;;3.93;;
6947;SDS011;3513;47.664;9.162;2022-09-09T03:15:32;10.20;;;4.63;;
6947;SDS011;3513;47.664;9.162;2022-09-09T03:17:58;8.17;;;4.13;;
6947;SDS011;3513;47.664;9.162;2022-09-09T03:20:24;11.93;;;4.00;;
6947;SDS011;3513;47.664;9.162;2022-09-09T03:22:52;17.70;;;5.63;;
6947;SDS011;3513;47.664;9.162;2022-09-09T03:25:18;11.47;;;3.70;;
6947;SDS011;3513;47.664;9.162;2022-09-09T03:27:44;10.63;;;4.50;;
6947;SDS011;3513;47.664;9.162;2022-09-09T03:30:09;10.40;;;3.63;;
6947;SDS011;3513;47.664;9.162;2022-09-09T03:32:35;13.70;;;4.63;;
6947;SDS011;3513;47.664;9.162;2022-09-09T03:35:02;12.30;;;4.60;;
6947;SDS011;3513;47.664;9.162;2022-09-09T03:37:28;13.93;;;4.90;;
6947;SDS011;3513;47.664;9.162;2022-09-09T03:39:53;21.60;;;4.37;;
6947;SDS011;3513;47.664;9.162;2022-09-09T03:42:19;11.53;;;3.40;;
6947;SDS011;3513;47.664;9.162;2022-09-09T03:44:46;14.30;;;3.80;;
6947;SDS011;3513;47.664;9.162;2022-09-09T03:47:14;6.47;;;2.47;;
6947;SDS011;3513;47.664;9.162;2022-09-09T03:49:45;9.50;;;2.90;;
6947;SDS011;3513;47.664;9.162;2022-09-09T03:52:11;4.10;;;1.60;;
6947;SDS011;3513;47.664;9.162;2022-09-09T03:54:37;4.67;;;2.40;;
6947;SDS011;3513;47.664;9.162;2022-09-09T03:57:04;7.17;;;1.97;;
6947;SDS011;3513;47.664;9.162;2022-09-09T03:59:29;3.57;;;1.70;;
6947;SDS011;3513;47.664;9.162;2022-09-09T04:01:55;2.27;;;1.73;;
6947;SDS011;3513;47.664;9.162;2022-09-09T04:04:23;14.43;;;2.07;;
6947;SDS011;3513;47.664;9.162;2022-09-09T04:06:51;4.10;;;1.70;;
6947;SDS011;3513;47.664;9.162;2022-09-09T04:09:17;2.20;;;1.40;;
6947;SDS011;3513;47.664;9.162;2022-09-09T04:11:42;3.90;;;2.27;;
6947;SDS011;3513;47.664;9.162;2022-09-09T04:14:08;2.93;;;1.87;;
6947;SDS011;3513;47.664;9.162;2022-09-09T04:16:34;3.63;;;2.00;;
6947;SDS011;3513;47.664;9.162;2022-09-09T04:19:03;4.80;;;1.57;;
6947;SDS011;3513;47.664;9.162;2022-09-09T04:21:32;2.20;;;1.30;;
6947;SDS011;3513;47.664;9.162;2022-09-09T04:23:58;2.10;;;1.20;;
6947;SDS011;3513;47.664;9.162;2022-09-09T04:26:24;4.20;;;1.70;;
6947;SDS011;3513;47.664;9.162;2022-09-09T04:28:50;14.57;;;2.57;;
6947;SDS011;3513;47.664;9.162;2022-09-09T04:31:18;2.20;;;1.30;;
6947;SDS011;3513;47.664;9.162;2022-09-09T04:33:46;4.20;;;1.50;;
6947;SDS011;3513;47.664;9.162;2022-09-09T04:36:12;9.53;;;2.20;;
6947;SDS011;3513;47.664;9.162;2022-09-09T04:38:38;4.43;;;1.60;;
6947;SDS011;3513;47.664;9.162;2022-09-09T04:41:04;3.73;;;1.33;;
6947;SDS011;3513;47.664;9.162;2022-09-09T04:43:31;8.13;;;1.50;;
6947;SDS011;3513;47.664;9.162;2022-09-09T04:45:57;10.03;;;1.50;;
6947;SDS011;3513;47.664;9.162;2022-09-09T04:48:24;3.70;;;1.70;;
6947;SDS011;3513;47.664;9.162;2022-09-09T04:53:23;3.00;;;1.40;;
6947;SDS011;3513;47.664;9.162;2022-09-09T04:55:50;3.87;;;1.30;;
6947;SDS011;3513;47.664;9.162;2022-09-09T04:58:16;4.93;;;1.30;;
6947;SDS011;3513;47.664;9.162;2022-09-09T05:00:42;9.40;;;1.30;;
6947;SDS011;3513;47.664;9.162;2022-09-09T05:03:07;10.93;;;1.97;;
6947;SDS011;3513;47.664;9.162;2022-09-09T05:05:34;4.07;;;1.50;;
6947;SDS011;3513;47.664;9.162;2022-09-09T05:08:05;5.83;;;1.57;;
6947;SDS011;3513;47.664;9.162;2022-09-09T05:10:32;3.30;;;1.67;;
6947;SDS011;3513;47.664;9.162;2022-09-09T05:12:58;6.73;;;2.33;;
6947;SDS011;3513;47.664;9.162;2022-09-09T05:15:24;4.00;;;1.70;;
6947;SDS011;3513;47.664;9.162;2022-09-09T05:17:50;5.07;;;1.70;;
6947;SDS011;3513;47.664;9.162;2022-09-09T05:20:17;1.87;;;1.70;;
6947;SDS011;3513;47.664;9.162;2022-09-09T05:22:43;7.67;;;1.70;;
6947;SDS011;3513;47.664;9.162;2022-09-09T05:25:09;5.43;;;1.90;;
6947;SDS011;3513;47.664;9.162;2022-09-09T05:27:35;12.60;;;2.90;;
6947;SDS011;3513;47.664;9.162;2022-09-09T05:30:00;6.27;;;2.07;;
6947;SDS011;3513;47.664;9.162;2022-09-09T05:32:26;10.30;;;2.03;;
6947;SDS011;3513;47.664;9.162;2022-09-09T05:34:52;5.70;;;2.10;;
6947;SDS011;3513;47.664;9.162;2022-09-09T05:37:18;8.33;;;2.27;;
6947;SDS011;3513;47.664;9.162;2022-09-09T05:39:44;6.63;;;2.33;;
6947;SDS011;3513;47.664;9.162;2022-09-09T05:42:10;3.93;;;1.80;;
6947;SDS011;3513;47.664;9.162;2022-09-09T05:44:35;5.03;;;1.97;;
6947;SDS011;3513;47.664;9.162;2022-09-09T05:47:02;2.47;;;1.57;;
6947;SDS011;3513;47.664;9.162;2022-09-09T05:49:28;10.63;;;2.17;;
6947;SDS011;3513;47.664;9.162;2022-09-09T05:51:54;7.60;;;2.10;;
6947;SDS011;3513;47.664;9.162;2022-09-09T05:54:19;6.43;;;1.60;;
6947;SDS011;3513;47.664;9.162;2022-09-09T05:56:45;11.27;;;2.20;;
6947;SDS011;3513;47.664;9.162;2022-09-09T05:59:11;6.10;;;1.80;;
6947;SDS011;3513;47.664;9.162;2022-09-09T06:01:37;10.60;;;1.87;;
6947;SDS011;3513;47.664;9.162;2022-09-09T06:04:07;5.87;;;2.07;;
6947;SDS011;3513;47.664;9.162;2022-09-09T06:06:34;4.47;;;1.67;;
6947;SDS011;3513;47.664;9.162;2022-09-09T06:09:02;4.97;;;1.50;;
6947;SDS011;3513;47.664;9.162;2022-09-09T06:11:31;4.07;;;1.97;;
6947;SDS011;3513;47.664;9.162;2022-09-09T06:13:59;3.93;;;1.37;;
6947;SDS011;3513;47.664;9.162;2022-09-09T06:16:26;8.43;;;2.10;;
6947;SDS011;3513;47.664;9.162;2022-09-09T06:18:54;4.43;;;1.87;;
6947;SDS011;3513;47.664;9.162;2022-09-09T06:21:22;3.40;;;1.40;;
6947;SDS011;3513;47.664;9.162;2022-09-09T06:23:49;6.63;;;2.53;;
6947;SDS011;3513;47.664;9.162;2022-09-09T06:26:19;5.40;;;1.80;;
6947;SDS011;3513;47.664;9.162;2022-09-09T06:28:45;3.97;;;2.17;;
6947;SDS011;3513;47.664;9.162;2022-09-09T06:31:13;5.87;;;1.50;;
6947;SDS011;3513;47.664;9.162;2022-09-09T06:33:40;4.43;;;1.33;;
6947;SDS011;3513;47.664;9.162;2022-09-09T06:36:07;6.67;;;1.50;;
6947;SDS011;3513;47.664;9.162;2022-09-09T06:38:37;3.20;;;1.80;;
6947;SDS011;3513;47.664;9.162;2022-09-09T06:41:02;7.87;;;2.13;;
6947;SDS011;3513;47.664;9.162;2022-09-09T06:43:30;6.60;;;1.93;;
6947;SDS011;3513;47.664;9.162;2022-09-09T06:45:57;3.73;;;1.70;;
6947;SDS011;3513;47.664;9.162;2022-09-09T06:48:23;5.53;;;1.63;;
6947;SDS011;3513;47.664;9.162;2022-09-09T06:50:50;4.80;;;1.43;;
6947;SDS011;3513;47.664;9.162;2022-09-09T06:53:25;7.57;;;1.70;;
6947;SDS011;3513;47.664;9.162;2022-09-09T06:55:52;8.23;;;1.70;;
6947;SDS011;3513;47.664;9.162;2022-09-09T06:58:17;2.50;;;1.60;;
6947;SDS011;3513;47.664;9.162;2022-09-09T07:00:43;4.00;;;1.83;;
6947;SDS011;3513;47.664;9.162;2022-09-09T07:03:09;2.50;;;1.50;;
6947;SDS011;3513;47.664;9.162;2022-09-09T07:05:35;3.83;;;1.80;;
6947;SDS011;3513;47.664;9.162;2022-09-09T07:08:02;6.67;;;1.50;;
6947;SDS011;3513;47.664;9.162;2022-09-09T07:10:28;3.67;;;1.73;;
6947;SDS011;3513;47.664;9.162;2022-09-09T07:12:53;2.57;;;2.10;;
6947;SDS011;3513;47.664;9.162;2022-09-09T07:15:19;5.90;;;1.53;;
6947;SDS011;3513;47.664;9.162;2022-09-09T07:17:46;5.80;;;1.83;;
6947;SDS011;3513;47.664;9.162;2022-09-09T07:20:13;11.90;;;2.17;;
6947;SDS011;3513;47.664;9.162;2022-09-09T07:22:39;2.63;;;1.60;;
6947;SDS011;3513;47.664;9.162;2022-09-09T07:25:06;3.80;;;1.47;;
6947;SDS011;3513;47.664;9.162;2022-09-09T07:27:32;6.50;;;1.90;;
6947;SDS011;3513;47.664;9.162;2022-09-09T07:29:57;11.80;;;2.53;;
6947;SDS011;3513;47.664;9.162;2022-09-09T07:32:23;4.40;;;1.77;;
6947;SDS011;3513;47.664;9.162;2022-09-09T07:34:50;3.77;;;1.50;;
6947;SDS011;3513;47.664;9.162;2022-09-09T07:37:16;3.57;;;1.93;;
6947;SDS011;3513;47.664;9.162;2022-09-09T07:39:42;3.60;;;2.07;;
6947;SDS011;3513;47.664;9.162;2022-09-09T07:42:09;6.60;;;1.67;;
6947;SDS011;3513;47.664;9.162;2022-09-09T07:44:36;4.07;;;1.70;;
6947;SDS011;3513;47.664;9.162;2022-09-09T07:47:04;4.77;;;1.67;;
6947;SDS011;3513;47.664;9.162;2022-09-09T07:49:30;6.80;;;1.47;;
6947;SDS011;3513;47.664;9.162;2022-09-09T07:51:57;5.03;;;1.60;;
6947;SDS011;3513;47.664;9.162;2022-09-09T07:54:23;2.30;;;1.23;;
6947;SDS011;3513;47.664;9.162;2022-09-09T07:56:49;3.07;;;1.30;;
6947;SDS011;3513;47.664;9.162;2022-09-09T07:59:16;3.63;;;1.57;;
6947;SDS011;3513;47.664;9.162;2022-09-09T08:01:59;1.53;;;1.27;;
6947;SDS011;3513;47.664;9.162;2022-09-09T08:04:25;3.80;;;1.23;;
6947;SDS011;3513;47.664;9.162;2022-09-09T08:06:55;1.53;;;0.90;;
6947;SDS011;3513;47.664;9.162;2022-09-09T08:09:22;3.43;;;1.67;;
6947;SDS011;3513;47.664;9.162;2022-09-09T08:11:53;8.37;;;1.30;;
6947;SDS011;3513;47.664;9.162;2022-09-09T08:14:21;3.00;;;0.97;;
6947;SDS011;3513;47.664;9.162;2022-09-09T08:16:48;4.23;;;1.33;;
6947;SDS011;3513;47.664;9.162;2022-09-09T08:19:14;2.50;;;1.00;;
6947;SDS011;3513;47.664;9.162;2022-09-09T08:21:40;9.87;;;1.70;;
6947;SDS011;3513;47.664;9.162;2022-09-09T08:24:09;2.50;;;1.20;;
6947;SDS011;3513;47.664;9.162;2022-09-09T08:26:40;3.27;;;1.10;;
6947;SDS011;3513;47.664;9.162;2022-09-09T08:29:07;7.90;;;1.77;;
6947;SDS011;3513;47.664;9.162;2022-09-09T08:31:39;8.80;;;1.73;;
6947;SDS011;3513;47.664;9.162;2022-09-09T08:34:05;3.57;;;1.13;;
6947;SDS011;3513;47.664;9.162;2022-09-09T08:36:36;3.80;;;1.57;;
6947;SDS011;3513;47.664;9.162;2022-09-09T08:39:07;6.10;;;1.97;;
6947;SDS011;3513;47.664;9.162;2022-09-09T08:52:47;8.70;;;1.40;;
6947;SDS011;3513;47.664;9.162;2022-09-09T08:58:20;3.37;;;1.20;;
6947;SDS011;3513;47.664;9.162;2022-09-09T09:00:59;4.83;;;1.23;;
6947;SDS011;3513;47.664;9.162;2022-09-09T09:06:40;4.33;;;1.27;;
6947;SDS011;3513;47.664;9.162;2022-09-09T09:11:56;3.83;;;1.37;;
6947;SDS011;3513;47.664;9.162;2022-09-09T09:14:26;8.67;;;1.50;;
6947;SDS011;3513;47.664;9.162;2022-09-09T09:17:18;2.50;;;1.20;;
6947;SDS011;3513;47.664;9.162;2022-09-09T09:19:46;3.47;;;1.40;;
6947;SDS011;3513;47.664;9.162;2022-09-09T09:25:05;4.20;;;1.17;;
6947;SDS011;3513;47.664;9.162;2022-09-09T09:27:58;9.37;;;1.53;;
6947;SDS011;3513;47.664;9.162;2022-09-09T09:30:34;6.30;;;1.57;;
6947;SDS011;3513;47.664;9.162;2022-09-09T09:33:18;3.47;;;1.40;;
6947;SDS011;3513;47.664;9.162;2022-09-09T09:35:50;10.13;;;1.87;;
6947;SDS011;3513;47.664;9.162;2022-09-09T09:40:55;4.77;;;1.37;;
6947;SDS011;3513;47.664;9.162;2022-09-09T09:43:28;5.83;;;1.33;;
6947;SDS011;3513;47.664;9.162;2022-09-09T09:45:56;4.37;;;1.50;;
6947;SDS011;3513;47.664;9.162;2022-09-09T09:48:26;4.43;;;1.47;;
6947;SDS011;3513;47.664;9.162;2022-09-09T09:50:54;8.70;;;1.63;;
6947;SDS011;3513;47.664;9.162;2022-09-09T09:53:29;4.43;;;0.97;;
6947;SDS011;3513;47.664;9.162;2022-09-09T09:55:59;3.47;;;1.27;;
6947;SDS011;3513;47.664;9.162;2022-09-09T09:58:31;10.13;;;1.37;;
6947;SDS011;3513;47.664;9.162;2022-09-09T10:01:26;5.97;;;1.90;;
6947;SDS011;3513;47.664;9.162;2022-09-09T10:03:58;1.20;;;1.10;;
6947;SDS011;3513;47.664;9.162;2022-09-09T10:06:32;3.73;;;1.50;;
6947;SDS011;3513;47.664;9.162;2022-09-09T10:09:02;6.13;;;2.07;;
6947;SDS011;3513;47.664;9.162;2022-09-09T10:11:44;9.50;;;1.50;;
6947;SDS011;3513;47.664;9.162;2022-09-09T10:14:21;4.87;;;1.27;;
6947;SDS011;3513;47.664;9.162;2022-09-09T10:20:16;7.03;;;1.63;;
6947;SDS011;3513;47.664;9.162;2022-09-09T10:23:09;3.40;;;1.60;;
6947;SDS011;3513;47.664;9.162;2022-09-09T10:37:34;5.20;;;1.50;;
6947;SDS011;3513;47.664;9.162;2022-09-09T10:42:46;8.73;;;1.60;;
6947;SDS011;3513;47.664;9.162;2022-09-09T10:45:17;3.87;;;1.17;;
6947;SDS011;3513;47.664;9.162;2022-09-09T10:56:10;15.23;;;1.57;;
6947;SDS011;3513;47.664;9.162;2022-09-09T11:01:29;8.53;;;1.73;;
6947;SDS011;3513;47.664;9.162;2022-09-09T11:04:05;3.87;;;1.23;;
6947;SDS011;3513;47.664;9.162;2022-09-09T11:06:40;5.97;;;1.30;;
6947;SDS011;3513;47.664;9.162;2022-09-09T11:09:19;6.40;;;1.37;;
6947;SDS011;3513;47.664;9.162;2022-09-09T11:11:55;5.90;;;1.33;;
6947;SDS011;3513;47.664;9.162;2022-09-09T11:17:10;6.07;;;1.70;;
6947;SDS011;3513;47.664;9.162;2022-09-09T11:19:43;5.20;;;1.90;;
6947;SDS011;3513;47.664;9.162;2022-09-09T11:24:44;6.40;;;1.90;;
6947;SDS011;3513;47.664;9.162;2022-09-09T11:35:38;4.23;;;1.17;;
6947;SDS011;3513;47.664;9.162;2022-09-09T11:40:40;7.03;;;1.70;;
6947;SDS011;3513;47.664;9.162;2022-09-09T11:43:23;10.30;;;1.73;;
6947;SDS011;3513;47.664;9.162;2022-09-09T11:45:53;1.63;;;0.90;;
6947;SDS011;3513;47.664;9.162;2022-09-09T11:48:41;9.40;;;1.00;;
6947;SDS011;3513;47.664;9.162;2022-09-09T11:53:54;3.80;;;1.47;;
6947;SDS011;3513;47.664;9.162;2022-09-09T11:56:33;7.60;;;1.00;;
6947;SDS011;3513;47.664;9.162;2022-09-09T12:01:57;7.40;;;1.23;;
6947;SDS011;3513;47.664;9.162;2022-09-09T12:17:46;6.67;;;1.53;;
6947;SDS011;3513;47.664;9.162;2022-09-09T12:23:04;4.33;;;1.07;;
6947;SDS011;3513;47.664;9.162;2022-09-09T12:28:25;7.20;;;1.13;;
6947;SDS011;3513;47.664;9.162;2022-09-09T12:31:10;5.70;;;1.10;;
6947;SDS011;3513;47.664;9.162;2022-09-09T12:33:45;3.70;;;0.93;;
6947;SDS011;3513;47.664;9.162;2022-09-09T12:36:16;5.50;;;1.50;;
6947;SDS011;3513;47.664;9.162;2022-09-09T12:38:46;4.03;;;1.03;;
6947;SDS011;3513;47.664;9.162;2022-09-09T12:41:20;2.90;;;1.33;;
6947;SDS011;3513;47.664;9.162;2022-09-09T12:43:50;4.37;;;1.13;;
6947;SDS011;3513;47.664;9.162;2022-09-09T12:48:56;1.87;;;1.00;;
6947;SDS011;3513;47.664;9.162;2022-09-09T12:51:29;1.23;;;0.90;;
6947;SDS011;3513;47.664;9.162;2022-09-09T12:53:56;5.87;;;1.67;;
6947;SDS011;3513;47.664;9.162;2022-09-09T12:56:25;10.77;;;1.47;;
6947;SDS011;3513;47.664;9.162;2022-09-09T12:58:56;4.27;;;0.90;;
6947;SDS011;3513;47.664;9.162;2022-09-09T13:03:51;3.33;;;1.30;;
6947;SDS011;3513;47.664;9.162;2022-09-09T13:06:28;2.37;;;1.00;;
6947;SDS011;3513;47.664;9.162;2022-09-09T13:08:55;4.80;;;1.13;;
6947;SDS011;3513;47.664;9.162;2022-09-09T13:11:39;4.60;;;1.80;;
6947;SDS011;3513;47.664;9.162;2022-09-09T13:14:17;2.70;;;1.20;;
6947;SDS011;3513;47.664;9.162;2022-09-09T13:16:57;3.13;;;1.40;;
6947;SDS011;3513;47.664;9.162;2022-09-09T13:19:25;3.60;;;1.80;;
6947;SDS011;3513;47.664;9.162;2022-09-09T13:21:53;2.20;;;1.20;;
6947;SDS011;3513;47.664;9.162;2022-09-09T13:24:31;6.13;;;1.33;;
6947;SDS011;3513;47.664;9.162;2022-09-09T13:26:59;2.63;;;1.40;;
6947;SDS011;3513;47.664;9.162;2022-09-09T13:29:27;6.07;;;1.10;;
6947;SDS011;3513;47.664;9.162;2022-09-09T13:31:53;10.27;;;1.47;;
6947;SDS011;3513;47.664;9.162;2022-09-09T13:34:39;9.27;;;1.70;;
6947;SDS011;3513;47.664;9.162;2022-09-09T13:37:29;6.53;;;1.53;;
6947;SDS011;3513;47.664;9.162;2022-09-09T13:40:12;5.77;;;1.50;;
6947;SDS011;3513;47.664;9.162;2022-09-09T13:42:44;6.30;;;1.33;;
6947;SDS011;3513;47.664;9.162;2022-09-09T13:45:20;5.00;;;1.77;;
6947;SDS011;3513;47.664;9.162;2022-09-09T13:47:48;5.13;;;1.50;;
6947;SDS011;3513;47.664;9.162;2022-09-09T13:50:27;4.53;;;1.53;;
6947;SDS011;3513;47.664;9.162;2022-09-09T13:52:57;2.07;;;1.17;;
6947;SDS011;3513;47.664;9.162;2022-09-09T13:55:24;5.27;;;1.50;;
6947;SDS011;3513;47.664;9.162;2022-09-09T13:57:55;6.73;;;1.30;;
6947;SDS011;3513;47.664;9.162;2022-09-09T14:00:23;7.10;;;1.00;;
6947;SDS011;3513;47.664;9.162;2022-09-09T14:02:49;3.30;;;1.27;;
6947;SDS011;3513;47.664;9.162;2022-09-09T14:05:16;2.30;;;1.10;;
6947;SDS011;3513;47.664;9.162;2022-09-09T14:07:44;8.13;;;1.33;;
6947;SDS011;3513;47.664;9.162;2022-09-09T14:10:11;2.60;;;1.10;;
6947;SDS011;3513;47.664;9.162;2022-09-09T14:12:37;4.30;;;1.20;;
6947;SDS011;3513;47.664;9.162;2022-09-09T14:15:03;5.47;;;1.73;;
6947;SDS011;3513;47.664;9.162;2022-09-09T14:17:30;2.53;;;1.37;;
6947;SDS011;3513;47.664;9.162;2022-09-09T14:19:56;1.10;;;0.80;;
6947;SDS011;3513;47.664;9.162;2022-09-09T14:22:22;4.17;;;1.00;;
6947;SDS011;3513;47.664;9.162;2022-09-09T14:24:48;2.87;;;1.00;;
6947;SDS011;3513;47.664;9.162;2022-09-09T14:27:14;4.10;;;1.10;;
6947;SDS011;3513;47.664;9.162;2022-09-09T14:29:40;5.23;;;1.30;;
6947;SDS011;3513;47.664;9.162;2022-09-09T14:32:07;4.30;;;1.37;;
6947;SDS011;3513;47.664;9.162;2022-09-09T14:34:32;4.13;;;1.27;;
6947;SDS011;3513;47.664;9.162;2022-09-09T14:36:58;4.20;;;1.00;;
6947;SDS011;3513;47.664;9.162;2022-09-09T14:39:24;8.50;;;1.70;;
6947;SDS011;3513;47.664;9.162;2022-09-09T14:41:50;3.13;;;0.97;;
6947;SDS011;3513;47.664;9.162;2022-09-09T14:44:15;4.70;;;1.33;;
6947;SDS011;3513;47.664;9.162;2022-09-09T14:46:41;4.63;;;1.30;;
6947;SDS011;3513;47.664;9.162;2022-09-09T14:49:10;3.90;;;1.37;;
6947;SDS011;3513;47.664;9.162;2022-09-09T14:51:37;4.63;;;1.23;;
6947;SDS011;3513;47.664;9.162;2022-09-09T14:54:03;3.50;;;1.00;;
6947;SDS011;3513;47.664;9.162;2022-09-09T14:56:31;4.20;;;1.47;;
6947;SDS011;3513;47.664;9.162;2022-09-09T14:58:59;2.00;;;1.57;;
6947;SDS011;3513;47.664;9.162;2022-09-09T15:01:26;4.70;;;1.60;;
6947;SDS011;3513;47.664;9.162;2022-09-09T15:03:53;3.17;;;1.37;;
6947;SDS011;3513;47.664;9.162;2022-09-09T15:06:23;5.50;;;1.77;;
6947;SDS011;3513;47.664;9.162;2022-09-09T15:08:51;4.23;;;1.40;;
6947;SDS011;3513;47.664;9.162;2022-09-09T15:11:17;3.10;;;1.50;;
6947;SDS011;3513;47.664;9.162;2022-09-09T15:13:44;4.43;;;1.57;;
6947;SDS011;3513;47.664;9.162;2022-09-09T15:16:14;4.90;;;1.47;;
6947;SDS011;3513;47.664;9.162;2022-09-09T15:18:41;5.80;;;2.03;;
6947;SDS011;3513;47.664;9.162;2022-09-09T15:21:09;7.90;;;1.80;;
6947;SDS011;3513;47.664;9.162;2022-09-09T15:23:35;2.27;;;1.00;;
6947;SDS011;3513;47.664;9.162;2022-09-09T15:26:02;8.70;;;1.50;;
6947;SDS011;3513;47.664;9.162;2022-09-09T15:28:29;5.53;;;1.57;;
6947;SDS011;3513;47.664;9.162;2022-09-09T15:30:58;7.37;;;1.13;;
6947;SDS011;3513;47.664;9.162;2022-09-09T15:33:29;9.73;;;0.97;;
6947;SDS011;3513;47.664;9.162;2022-09-09T15:35:54;6.80;;;1.47;;
6947;SDS011;3513;47.664;9.162;2022-09-09T15:38:20;4.00;;;1.10;;
6947;SDS011;3513;47.664;9.162;2022-09-09T15:40:52;3.03;;;1.00;;
6947;SDS011;3513;47.664;9.162;2022-09-09T15:43:22;6.57;;;1.37;;
6947;SDS011;3513;47.664;9.162;2022-09-09T15:45:49;7.40;;;1.10;;
6947;SDS011;3513;47.664;9.162;2022-09-09T15:48:19;7.50;;;1.43;;
6947;SDS011;3513;47.664;9.162;2022-09-09T15:51:01;10.87;;;1.03;;
6947;SDS011;3513;47.664;9.162;2022-09-09T15:53:28;2.07;;;0.70;;
6947;SDS011;3513;47.664;9.162;2022-09-09T15:55:55;2.17;;;0.90;;
6947;SDS011;3513;47.664;9.162;2022-09-09T15:58:20;2.30;;;0.80;;
6947;SDS011;3513;47.664;9.162;2022-09-09T16:00:46;3.87;;;0.83;;
6947;SDS011;3513;47.664;9.162;2022-09-09T16:03:12;4.20;;;1.00;;
6947;SDS011;3513;47.664;9.162;2022-09-09T16:05:38;3.37;;;0.80;;
6947;SDS011;3513;47.664;9.162;2022-09-09T16:08:03;2.33;;;0.97;;
6947;SDS011;3513;47.664;9.162;2022-09-09T16:10:29;8.00;;;0.87;;
6947;SDS011;3513;47.664;9.162;2022-09-09T16:12:55;3.17;;;1.10;;
6947;SDS011;3513;47.664;9.162;2022-09-09T16:15:21;2.27;;;1.07;;
6947;SDS011;3513;47.664;9.162;2022-09-09T16:17:48;2.73;;;0.90;;
6947;SDS011;3513;47.664;9.162;2022-09-09T16:20:14;3.17;;;0.93;;
6947;SDS011;3513;47.664;9.162;2022-09-09T16:22:39;4.30;;;1.00;;
6947;SDS011;3513;47.664;9.162;2022-09-09T16:25:05;1.27;;;0.73;;
6947;SDS011;3513;47.664;9.162;2022-09-09T16:27:31;1.30;;;0.60;;
6947;SDS011;3513;47.664;9.162;2022-09-09T16:30:00;2.23;;;0.77;;
6947;SDS011;3513;47.664;9.162;2022-09-09T16:32:26;4.40;;;1.03;;
6947;SDS011;3513;47.664;9.162;2022-09-09T16:34:51;1.57;;;0.80;;
6947;SDS011;3513;47.664;9.162;2022-09-09T16:37:17;4.63;;;1.03;;
6947;SDS011;3513;47.664;9.162;2022-09-09T16:39:42;6.67;;;1.20;;
6947;SDS011;3513;47.664;9.162;2022-09-09T16:42:08;5.10;;;1.10;;
6947;SDS011;3513;47.664;9.162;2022-09-09T16:44:34;4.90;;;0.70;;
6947;SDS011;3513;47.664;9.162;2022-09-09T16:47:00;2.10;;;0.80;;
6947;SDS011;3513;47.664;9.162;2022-09-09T16:49:25;2.07;;;0.70;;
6947;SDS011;3513;47.664;9.162;2022-09-09T16:51:53;4.17;;;0.90;;
6947;SDS011;3513;47.664;9.162;2022-09-09T16:54:18;4.30;;;1.10;;
6947;SDS011;3513;47.664;9.162;2022-09-09T16:56:45;4.17;;;0.73;;
6947;SDS011;3513;47.664;9.162;2022-09-09T16:59:16;1.33;;;0.90;;
6947;SDS011;3513;47.664;9.162;2022-09-09T17:01:43;2.03;;;0.80;;
6947;SDS011;3513;47.664;9.162;2022-09-09T17:04:12;7.73;;;1.30;;
6947;SDS011;3513;47.664;9.162;2022-09-09T17:06:41;3.73;;;1.00;;
6947;SDS011;3513;47.664;9.162;2022-09-09T17:09:10;6.87;;;1.07;;
6947;SDS011;3513;47.664;9.162;2022-09-09T17:11:36;2.97;;;0.83;;
6947;SDS011;3513;47.664;9.162;2022-09-09T17:14:03;2.43;;;1.10;;
6947;SDS011;3513;47.664;9.162;2022-09-09T17:16:31;8.30;;;0.90;;
6947;SDS011;3513;47.664;9.162;2022-09-09T17:18:59;1.43;;;0.93;;
6947;SDS011;3513;47.664;9.162;2022-09-09T17:21:26;5.60;;;1.10;;
6947;SDS011;3513;47.664;9.162;2022-09-09T17:23:53;1.80;;;1.00;;
6947;SDS011;3513;47.664;9.162;2022-09-09T17:26:21;5.10;;;1.17;;
6947;SDS011;3513;47.664;9.162;2022-09-09T17:28:48;4.30;;;1.07;;
6947;SDS011;3513;47.664;9.162;2022-09-09T17:31:14;1.33;;;0.80;;
6947;SDS011;3513;47.664;9.162;2022-09-09T17:33:43;5.47;;;1.37;;
6947;SDS011;3513;47.664;9.162;2022-09-09T17:36:13;4.87;;;1.03;;
6947;SDS011;3513;47.664;9.162;2022-09-09T17:38:44;7.43;;;1.30;;
6947;SDS011;3513;47.664;9.162;2022-09-09T17:43:38;4.40;;;1.23;;
6947;SDS011;3513;47.664;9.162;2022-09-09T17:46:09;25.77;;;1.30;;
6947;SDS011;3513;47.664;9.162;2022-09-09T17:48:42;2.40;;;1.03;;
6947;SDS011;3513;47.664;9.162;2022-09-09T17:51:11;4.67;;;1.07;;
6947;SDS011;3513;47.664;9.162;2022-09-09T17:53:39;9.80;;;1.33;;